sensor_id;sensor_type;location;lat;lon;timestamp;P1;durP1;ratioP1;P2;durP2;ratioP2
49978;SDS011;35869;50.990;6.962;2023-01-09T00:04:27;1.13;;;0.60;;
49978;SDS011;35869;50.990;6.962;2023-01-09T00:09:27;0.20;;;0.20;;
49978;SDS011;35869;50.990;6.962;2023-01-09T00:14:28;0.38;;;0.38;;
49978;SDS011;35869;50.990;6.962;2023-01-09T00:19:28;0.47;;;0.22;;
49978;SDS011;35869;50.990;6.962;2023-01-09T00:24:28;0.73;;;0.30;;
49978;SDS011;35869;50.990;6.962;2023-01-09T00:29:28;0.45;;;0.35;;
49978;SDS011;35869;50.990;6.962;2023-01-09T00:34:29;0.57;;;0.57;;
49978;SDS011;35869;50.990;6.962;2023-01-09T00:39:29;0.40;;;0.30;;
49978;SDS011;35869;50.990;6.962;2023-01-09T00:44:31;2.60;;;0.77;;
49978;SDS011;35869;50.990;6.962;2023-01-09T00:49:36;1.20;;;0.80;;
49978;SDS011;35869;50.990;6.962;2023-01-09T00:54:37;0.45;;;0.40;;
49978;SDS011;35869;50.990;6.962;2023-01-09T00:59:38;0.35;;;0.30;;
49978;SDS011;35869;50.990;6.962;2023-01-09T01:04:39;0.57;;;0.43;;
49978;SDS011;35869;50.990;6.962;2023-01-09T01:09:39;1.30;;;0.25;;
49978;SDS011;35869;50.990;6.962;2023-01-09T01:14:40;0.47;;;0.30;;
49978;SDS011;35869;50.990;6.962;2023-01-09T01:19:40;0.50;;;0.20;;
49978;SDS011;35869;50.990;6.962;2023-01-09T01:24:40;0.20;;;0.20;;
49978;SDS011;35869;50.990;6.962;2023-01-09T01:29:41;0.53;;;0.50;;
49978;SDS011;35869;50.990;6.962;2023-01-09T01:34:41;0.28;;;0.20;;
49978;SDS011;35869;50.990;6.962;2023-01-09T01:39:41;0.30;;;0.30;;
49978;SDS011;35869;50.990;6.962;2023-01-09T01:55:42;0.43;;;0.32;;
49978;SDS011;35869;50.990;6.962;2023-01-09T02:00:48;1.25;;;0.25;;
49978;SDS011;35869;50.990;6.962;2023-01-09T02:05:48;0.30;;;0.30;;
49978;SDS011;35869;50.990;6.962;2023-01-09T02:10:48;1.60;;;0.40;;
49978;SDS011;35869;50.990;6.962;2023-01-09T02:21:12;0.52;;;0.30;;
49978;SDS011;35869;50.990;6.962;2023-01-09T02:37:20;0.20;;;0.20;;
49978;SDS011;35869;50.990;6.962;2023-01-09T02:42:24;1.27;;;0.40;;
49978;SDS011;35869;50.990;6.962;2023-01-09T03:03:30;0.85;;;0.80;;
49978;SDS011;35869;50.990;6.962;2023-01-09T03:08:13;1.52;;;0.40;;
49978;SDS011;35869;50.990;6.962;2023-01-09T03:13:15;1.00;;;0.55;;
49978;SDS011;35869;50.990;6.962;2023-01-09T03:18:19;0.80;;;0.47;;
49978;SDS011;35869;50.990;6.962;2023-01-09T03:23:22;8.23;;;1.55;;
49978;SDS011;35869;50.990;6.962;2023-01-09T03:28:27;1.90;;;0.50;;
49978;SDS011;35869;50.990;6.962;2023-01-09T03:33:27;1.95;;;0.63;;
49978;SDS011;35869;50.990;6.962;2023-01-09T03:38:28;0.95;;;0.43;;
49978;SDS011;35869;50.990;6.962;2023-01-09T03:43:28;1.23;;;0.63;;
49978;SDS011;35869;50.990;6.962;2023-01-09T03:48:28;1.48;;;0.82;;
49978;SDS011;35869;50.990;6.962;2023-01-09T03:53:28;1.13;;;0.55;;
49978;SDS011;35869;50.990;6.962;2023-01-09T03:58:29;3.15;;;0.88;;
49978;SDS011;35869;50.990;6.962;2023-01-09T04:03:29;0.65;;;0.43;;
49978;SDS011;35869;50.990;6.962;2023-01-09T04:08:30;1.38;;;0.73;;
49978;SDS011;35869;50.990;6.962;2023-01-09T04:13:30;3.67;;;0.63;;
49978;SDS011;35869;50.990;6.962;2023-01-09T04:18:30;1.55;;;0.98;;
49978;SDS011;35869;50.990;6.962;2023-01-09T04:23:30;1.75;;;1.15;;
49978;SDS011;35869;50.990;6.962;2023-01-09T04:28:30;2.58;;;1.00;;
49978;SDS011;35869;50.990;6.962;2023-01-09T04:33:31;4.72;;;0.80;;
49978;SDS011;35869;50.990;6.962;2023-01-09T04:38:31;1.17;;;0.63;;
49978;SDS011;35869;50.990;6.962;2023-01-09T04:43:31;4.87;;;1.33;;
49978;SDS011;35869;50.990;6.962;2023-01-09T04:48:31;2.72;;;0.80;;
49978;SDS011;35869;50.990;6.962;2023-01-09T04:53:32;5.40;;;1.10;;
49978;SDS011;35869;50.990;6.962;2023-01-09T04:58:32;2.20;;;0.93;;
49978;SDS011;35869;50.990;6.962;2023-01-09T05:03:32;2.75;;;0.75;;
49978;SDS011;35869;50.990;6.962;2023-01-09T05:08:32;6.10;;;1.00;;
49978;SDS011;35869;50.990;6.962;2023-01-09T05:13:32;2.10;;;0.73;;
49978;SDS011;35869;50.990;6.962;2023-01-09T05:18:33;0.55;;;0.50;;
49978;SDS011;35869;50.990;6.962;2023-01-09T05:23:33;1.77;;;0.80;;
49978;SDS011;35869;50.990;6.962;2023-01-09T05:28:34;4.15;;;0.80;;
49978;SDS011;35869;50.990;6.962;2023-01-09T05:33:34;1.15;;;0.80;;
49978;SDS011;35869;50.990;6.962;2023-01-09T05:38:34;5.07;;;0.85;;
49978;SDS011;35869;50.990;6.962;2023-01-09T05:43:34;2.30;;;0.60;;
49978;SDS011;35869;50.990;6.962;2023-01-09T05:48:35;3.13;;;1.47;;
49978;SDS011;35869;50.990;6.962;2023-01-09T05:53:35;2.40;;;0.80;;
49978;SDS011;35869;50.990;6.962;2023-01-09T05:58:35;5.63;;;0.93;;
49978;SDS011;35869;50.990;6.962;2023-01-09T06:03:35;2.13;;;0.80;;
49978;SDS011;35869;50.990;6.962;2023-01-09T06:08:35;2.40;;;0.88;;
49978;SDS011;35869;50.990;6.962;2023-01-09T06:13:36;1.95;;;0.77;;
49978;SDS011;35869;50.990;6.962;2023-01-09T06:18:36;2.63;;;0.88;;
49978;SDS011;35869;50.990;6.962;2023-01-09T06:23:36;3.30;;;1.17;;
49978;SDS011;35869;50.990;6.962;2023-01-09T06:28:36;1.27;;;0.80;;
49978;SDS011;35869;50.990;6.962;2023-01-09T06:33:36;2.42;;;1.00;;
49978;SDS011;35869;50.990;6.962;2023-01-09T06:38:37;1.95;;;0.60;;
49978;SDS011;35869;50.990;6.962;2023-01-09T06:43:37;1.42;;;0.80;;
49978;SDS011;35869;50.990;6.962;2023-01-09T06:48:37;2.57;;;1.00;;
49978;SDS011;35869;50.990;6.962;2023-01-09T06:53:38;4.13;;;1.23;;
49978;SDS011;35869;50.990;6.962;2023-01-09T06:58:38;3.28;;;0.88;;
49978;SDS011;35869;50.990;6.962;2023-01-09T07:03:38;3.70;;;0.77;;
49978;SDS011;35869;50.990;6.962;2023-01-09T07:08:38;3.50;;;1.38;;
49978;SDS011;35869;50.990;6.962;2023-01-09T07:13:39;2.78;;;0.80;;
49978;SDS011;35869;50.990;6.962;2023-01-09T07:18:39;1.10;;;0.70;;
49978;SDS011;35869;50.990;6.962;2023-01-09T07:23:39;5.00;;;0.93;;
49978;SDS011;35869;50.990;6.962;2023-01-09T07:28:39;1.80;;;0.80;;
49978;SDS011;35869;50.990;6.962;2023-01-09T07:33:39;4.53;;;1.35;;
49978;SDS011;35869;50.990;6.962;2023-01-09T07:38:39;3.67;;;1.10;;
49978;SDS011;35869;50.990;6.962;2023-01-09T07:43:40;2.42;;;1.23;;
49978;SDS011;35869;50.990;6.962;2023-01-09T07:48:40;4.43;;;0.87;;
49978;SDS011;35869;50.990;6.962;2023-01-09T07:53:40;4.43;;;1.20;;
49978;SDS011;35869;50.990;6.962;2023-01-09T07:58:40;3.53;;;0.70;;
49978;SDS011;35869;50.990;6.962;2023-01-09T08:03:41;1.42;;;0.98;;
49978;SDS011;35869;50.990;6.962;2023-01-09T08:08:41;3.42;;;0.80;;
49978;SDS011;35869;50.990;6.962;2023-01-09T08:13:41;0.95;;;0.70;;
49978;SDS011;35869;50.990;6.962;2023-01-09T08:18:41;0.63;;;0.60;;
49978;SDS011;35869;50.990;6.962;2023-01-09T08:23:42;2.20;;;0.70;;
49978;SDS011;35869;50.990;6.962;2023-01-09T08:28:42;2.95;;;0.80;;
49978;SDS011;35869;50.990;6.962;2023-01-09T08:33:42;1.25;;;0.70;;
49978;SDS011;35869;50.990;6.962;2023-01-09T08:38:42;3.35;;;1.20;;
49978;SDS011;35869;50.990;6.962;2023-01-09T08:43:43;1.00;;;0.60;;
49978;SDS011;35869;50.990;6.962;2023-01-09T08:48:43;1.67;;;0.57;;
49978;SDS011;35869;50.990;6.962;2023-01-09T08:53:43;2.08;;;0.82;;
49978;SDS011;35869;50.990;6.962;2023-01-09T08:58:43;1.20;;;0.80;;
49978;SDS011;35869;50.990;6.962;2023-01-09T09:03:44;4.45;;;0.98;;
49978;SDS011;35869;50.990;6.962;2023-01-09T09:08:44;1.98;;;0.70;;
49978;SDS011;35869;50.990;6.962;2023-01-09T09:13:44;4.10;;;1.50;;
49978;SDS011;35869;50.990;6.962;2023-01-09T09:18:44;3.20;;;0.95;;
49978;SDS011;35869;50.990;6.962;2023-01-09T09:23:45;5.68;;;1.30;;
49978;SDS011;35869;50.990;6.962;2023-01-09T09:28:45;3.87;;;1.47;;
49978;SDS011;35869;50.990;6.962;2023-01-09T09:33:45;3.80;;;1.30;;
49978;SDS011;35869;50.990;6.962;2023-01-09T09:38:45;2.15;;;1.23;;
49978;SDS011;35869;50.990;6.962;2023-01-09T09:49:01;1.83;;;1.60;;
49978;SDS011;35869;50.990;6.962;2023-01-09T09:59:18;2.45;;;1.33;;
49978;SDS011;35869;50.990;6.962;2023-01-09T10:04:20;1.98;;;1.30;;
49978;SDS011;35869;50.990;6.962;2023-01-09T10:14:33;4.43;;;1.33;;
49978;SDS011;35869;50.990;6.962;2023-01-09T10:19:36;3.20;;;1.02;;
49978;SDS011;35869;50.990;6.962;2023-01-09T10:41:09;1.40;;;0.80;;
49978;SDS011;35869;50.990;6.962;2023-01-09T10:51:21;2.25;;;0.85;;
49978;SDS011;35869;50.990;6.962;2023-01-09T10:56:27;0.90;;;0.47;;
49978;SDS011;35869;50.990;6.962;2023-01-09T11:01:38;3.00;;;0.52;;
49978;SDS011;35869;50.990;6.962;2023-01-09T11:06:42;1.63;;;0.50;;
49978;SDS011;35869;50.990;6.962;2023-01-09T11:11:46;1.38;;;0.80;;
49978;SDS011;35869;50.990;6.962;2023-01-09T11:16:53;3.10;;;0.88;;
49978;SDS011;35869;50.990;6.962;2023-01-09T11:22:13;2.40;;;1.33;;
49978;SDS011;35869;50.990;6.962;2023-01-09T11:27:16;5.15;;;0.82;;
49978;SDS011;35869;50.990;6.962;2023-01-09T11:32:22;1.52;;;0.45;;
49978;SDS011;35869;50.990;6.962;2023-01-09T11:37:24;3.38;;;0.60;;
49978;SDS011;35869;50.990;6.962;2023-01-09T11:42:28;2.75;;;0.85;;
49978;SDS011;35869;50.990;6.962;2023-01-09T11:47:38;1.17;;;0.68;;
49978;SDS011;35869;50.990;6.962;2023-01-09T11:52:39;0.82;;;0.43;;
49978;SDS011;35869;50.990;6.962;2023-01-09T11:57:39;0.85;;;0.70;;
49978;SDS011;35869;50.990;6.962;2023-01-09T12:08:00;1.02;;;0.70;;
49978;SDS011;35869;50.990;6.962;2023-01-09T12:13:35;0.75;;;0.43;;
49978;SDS011;35869;50.990;6.962;2023-01-09T12:19:05;0.80;;;0.50;;
49978;SDS011;35869;50.990;6.962;2023-01-09T12:29:40;1.35;;;0.52;;
49978;SDS011;35869;50.990;6.962;2023-01-09T12:35:29;0.82;;;0.60;;
49978;SDS011;35869;50.990;6.962;2023-01-09T12:45:50;2.80;;;0.90;;
49978;SDS011;35869;50.990;6.962;2023-01-09T12:51:02;0.60;;;0.60;;
49978;SDS011;35869;50.990;6.962;2023-01-09T12:56:06;2.95;;;0.68;;
49978;SDS011;35869;50.990;6.962;2023-01-09T13:01:11;0.70;;;0.60;;
49978;SDS011;35869;50.990;6.962;2023-01-09T13:06:16;1.30;;;0.80;;
49978;SDS011;35869;50.990;6.962;2023-01-09T13:11:24;1.70;;;0.93;;
49978;SDS011;35869;50.990;6.962;2023-01-09T13:16:32;1.43;;;0.90;;
49978;SDS011;35869;50.990;6.962;2023-01-09T13:21:36;4.15;;;0.70;;
49978;SDS011;35869;50.990;6.962;2023-01-09T13:26:41;2.15;;;1.23;;
49978;SDS011;35869;50.990;6.962;2023-01-09T13:37:13;5.25;;;1.00;;
49978;SDS011;35869;50.990;6.962;2023-01-09T13:42:23;3.35;;;1.17;;
49978;SDS011;35869;50.990;6.962;2023-01-09T13:47:25;3.67;;;1.00;;
49978;SDS011;35869;50.990;6.962;2023-01-09T13:52:31;3.80;;;0.85;;
49978;SDS011;35869;50.990;6.962;2023-01-09T13:57:37;1.65;;;0.80;;
49978;SDS011;35869;50.990;6.962;2023-01-09T14:07:42;2.67;;;1.20;;
49978;SDS011;35869;50.990;6.962;2023-01-09T14:12:43;2.75;;;1.15;;
49978;SDS011;35869;50.990;6.962;2023-01-09T14:17:44;2.63;;;1.10;;
49978;SDS011;35869;50.990;6.962;2023-01-09T14:22:44;6.63;;;1.45;;
49978;SDS011;35869;50.990;6.962;2023-01-09T14:27:48;2.25;;;1.15;;
49978;SDS011;35869;50.990;6.962;2023-01-09T14:33:02;3.92;;;1.30;;
49978;SDS011;35869;50.990;6.962;2023-01-09T14:43:56;4.70;;;1.75;;
49978;SDS011;35869;50.990;6.962;2023-01-09T14:49:15;3.90;;;1.15;;
49978;SDS011;35869;50.990;6.962;2023-01-09T14:54:24;3.30;;;1.23;;
49978;SDS011;35869;50.990;6.962;2023-01-09T14:59:29;4.82;;;2.22;;
49978;SDS011;35869;50.990;6.962;2023-01-09T15:04:33;5.68;;;1.50;;
49978;SDS011;35869;50.990;6.962;2023-01-09T15:14:42;3.50;;;1.52;;
49978;SDS011;35869;50.990;6.962;2023-01-09T15:19:44;2.55;;;1.67;;
49978;SDS011;35869;50.990;6.962;2023-01-09T15:24:45;3.38;;;1.85;;
49978;SDS011;35869;50.990;6.962;2023-01-09T15:29:45;6.80;;;1.55;;
49978;SDS011;35869;50.990;6.962;2023-01-09T15:34:46;3.42;;;1.23;;
49978;SDS011;35869;50.990;6.962;2023-01-09T15:39:47;4.68;;;1.38;;
49978;SDS011;35869;50.990;6.962;2023-01-09T15:44:48;3.60;;;1.27;;
49978;SDS011;35869;50.990;6.962;2023-01-09T15:49:51;1.30;;;1.10;;
49978;SDS011;35869;50.990;6.962;2023-01-09T15:54:51;1.70;;;1.30;;
49978;SDS011;35869;50.990;6.962;2023-01-09T15:59:52;3.17;;;1.73;;
49978;SDS011;35869;50.990;6.962;2023-01-09T16:04:54;14.18;;;1.95;;
49978;SDS011;35869;50.990;6.962;2023-01-09T16:09:54;4.60;;;2.13;;
49978;SDS011;35869;50.990;6.962;2023-01-09T16:14:58;6.25;;;2.00;;
49978;SDS011;35869;50.990;6.962;2023-01-09T16:20:13;4.15;;;1.75;;
49978;SDS011;35869;50.990;6.962;2023-01-09T16:25:27;4.22;;;2.20;;
49978;SDS011;35869;50.990;6.962;2023-01-09T16:30:29;5.10;;;2.15;;
49978;SDS011;35869;50.990;6.962;2023-01-09T16:35:29;6.45;;;1.77;;
49978;SDS011;35869;50.990;6.962;2023-01-09T16:40:30;1.88;;;1.55;;
49978;SDS011;35869;50.990;6.962;2023-01-09T16:45:37;2.77;;;1.90;;
49978;SDS011;35869;50.990;6.962;2023-01-09T16:50:38;4.05;;;2.63;;
49978;SDS011;35869;50.990;6.962;2023-01-09T16:55:39;2.50;;;2.03;;
49978;SDS011;35869;50.990;6.962;2023-01-09T17:00:39;3.73;;;1.87;;
49978;SDS011;35869;50.990;6.962;2023-01-09T17:05:39;5.78;;;2.13;;
49978;SDS011;35869;50.990;6.962;2023-01-09T17:10:40;3.77;;;2.27;;
49978;SDS011;35869;50.990;6.962;2023-01-09T17:15:40;3.30;;;1.70;;
49978;SDS011;35869;50.990;6.962;2023-01-09T17:20:41;3.88;;;1.80;;
49978;SDS011;35869;50.990;6.962;2023-01-09T17:25:43;2.65;;;2.00;;
49978;SDS011;35869;50.990;6.962;2023-01-09T17:30:43;4.65;;;2.08;;
49978;SDS011;35869;50.990;6.962;2023-01-09T17:35:43;5.40;;;3.08;;
49978;SDS011;35869;50.990;6.962;2023-01-09T17:40:44;5.97;;;2.47;;
49978;SDS011;35869;50.990;6.962;2023-01-09T17:45:44;5.87;;;2.50;;
49978;SDS011;35869;50.990;6.962;2023-01-09T17:50:45;5.55;;;2.70;;
49978;SDS011;35869;50.990;6.962;2023-01-09T17:55:46;7.78;;;2.33;;
49978;SDS011;35869;50.990;6.962;2023-01-09T18:00:47;8.65;;;3.50;;
49978;SDS011;35869;50.990;6.962;2023-01-09T18:05:47;6.95;;;2.40;;
49978;SDS011;35869;50.990;6.962;2023-01-09T18:10:48;3.58;;;2.65;;
49978;SDS011;35869;50.990;6.962;2023-01-09T18:15:48;4.00;;;2.40;;
49978;SDS011;35869;50.990;6.962;2023-01-09T18:20:48;4.15;;;2.30;;
49978;SDS011;35869;50.990;6.962;2023-01-09T18:25:48;7.47;;;3.08;;
49978;SDS011;35869;50.990;6.962;2023-01-09T18:30:49;7.55;;;2.53;;
49978;SDS011;35869;50.990;6.962;2023-01-09T18:40:50;5.25;;;3.53;;
49978;SDS011;35869;50.990;6.962;2023-01-09T18:45:50;8.18;;;3.63;;
49978;SDS011;35869;50.990;6.962;2023-01-09T18:50:50;4.93;;;2.85;;
49978;SDS011;35869;50.990;6.962;2023-01-09T18:55:50;8.88;;;3.60;;
49978;SDS011;35869;50.990;6.962;2023-01-09T19:00:53;11.48;;;5.60;;
49978;SDS011;35869;50.990;6.962;2023-01-09T19:05:57;6.38;;;4.15;;
49978;SDS011;35869;50.990;6.962;2023-01-09T19:10:59;7.30;;;3.63;;
49978;SDS011;35869;50.990;6.962;2023-01-09T19:16:00;18.30;;;8.30;;
49978;SDS011;35869;50.990;6.962;2023-01-09T19:21:01;12.25;;;4.78;;
49978;SDS011;35869;50.990;6.962;2023-01-09T19:26:03;6.13;;;3.50;;
49978;SDS011;35869;50.990;6.962;2023-01-09T19:31:04;6.35;;;3.95;;
49978;SDS011;35869;50.990;6.962;2023-01-09T19:36:05;6.80;;;4.90;;
49978;SDS011;35869;50.990;6.962;2023-01-09T19:41:10;7.13;;;4.07;;
49978;SDS011;35869;50.990;6.962;2023-01-09T19:46:13;6.38;;;3.85;;
49978;SDS011;35869;50.990;6.962;2023-01-09T19:51:17;5.38;;;4.38;;
49978;SDS011;35869;50.990;6.962;2023-01-09T19:56:24;9.07;;;4.50;;
49978;SDS011;35869;50.990;6.962;2023-01-09T20:01:27;6.07;;;3.78;;
49978;SDS011;35869;50.990;6.962;2023-01-09T20:06:29;6.10;;;3.30;;
49978;SDS011;35869;50.990;6.962;2023-01-09T20:11:30;9.93;;;3.88;;
49978;SDS011;35869;50.990;6.962;2023-01-09T20:16:31;3.83;;;3.13;;
49978;SDS011;35869;50.990;6.962;2023-01-09T20:21:32;4.70;;;2.92;;
49978;SDS011;35869;50.990;6.962;2023-01-09T20:26:33;5.95;;;3.40;;
49978;SDS011;35869;50.990;6.962;2023-01-09T20:31:35;5.28;;;3.50;;
49978;SDS011;35869;50.990;6.962;2023-01-09T20:36:35;6.83;;;3.80;;
49978;SDS011;35869;50.990;6.962;2023-01-09T20:41:35;7.40;;;3.58;;
49978;SDS011;35869;50.990;6.962;2023-01-09T20:46:37;4.53;;;3.47;;
49978;SDS011;35869;50.990;6.962;2023-01-09T20:51:40;6.20;;;3.33;;
49978;SDS011;35869;50.990;6.962;2023-01-09T20:56:42;5.80;;;3.65;;
49978;SDS011;35869;50.990;6.962;2023-01-09T21:01:42;4.30;;;3.00;;
49978;SDS011;35869;50.990;6.962;2023-01-09T21:06:42;4.15;;;3.05;;
49978;SDS011;35869;50.990;6.962;2023-01-09T21:11:42;5.77;;;2.60;;
49978;SDS011;35869;50.990;6.962;2023-01-09T21:16:43;5.03;;;2.95;;
49978;SDS011;35869;50.990;6.962;2023-01-09T21:21:43;3.33;;;2.42;;
49978;SDS011;35869;50.990;6.962;2023-01-09T21:26:43;8.57;;;2.60;;
49978;SDS011;35869;50.990;6.962;2023-01-09T21:31:43;5.13;;;2.05;;
49978;SDS011;35869;50.990;6.962;2023-01-09T21:36:44;3.78;;;2.17;;
49978;SDS011;35869;50.990;6.962;2023-01-09T21:41:44;5.75;;;2.00;;
49978;SDS011;35869;50.990;6.962;2023-01-09T21:46:45;3.50;;;2.10;;
49978;SDS011;35869;50.990;6.962;2023-01-09T21:51:45;3.55;;;2.13;;
49978;SDS011;35869;50.990;6.962;2023-01-09T21:56:45;3.40;;;1.90;;
49978;SDS011;35869;50.990;6.962;2023-01-09T22:01:49;3.23;;;1.97;;
49978;SDS011;35869;50.990;6.962;2023-01-09T22:06:50;4.63;;;2.03;;
49978;SDS011;35869;50.990;6.962;2023-01-09T22:11:50;6.23;;;2.70;;
49978;SDS011;35869;50.990;6.962;2023-01-09T22:16:50;6.00;;;2.55;;
49978;SDS011;35869;50.990;6.962;2023-01-09T22:21:51;5.28;;;2.83;;
49978;SDS011;35869;50.990;6.962;2023-01-09T22:26:51;10.00;;;4.50;;
49978;SDS011;35869;50.990;6.962;2023-01-09T22:31:51;6.38;;;4.05;;
49978;SDS011;35869;50.990;6.962;2023-01-09T22:36:51;7.97;;;3.90;;
49978;SDS011;35869;50.990;6.962;2023-01-09T22:41:51;5.60;;;3.63;;
49978;SDS011;35869;50.990;6.962;2023-01-09T22:46:52;6.72;;;4.97;;
49978;SDS011;35869;50.990;6.962;2023-01-09T22:51:52;3.95;;;3.45;;
49978;SDS011;35869;50.990;6.962;2023-01-09T22:56:52;7.45;;;3.95;;
49978;SDS011;35869;50.990;6.962;2023-01-09T23:01:52;5.63;;;4.22;;
49978;SDS011;35869;50.990;6.962;2023-01-09T23:06:52;6.28;;;3.83;;
49978;SDS011;35869;50.990;6.962;2023-01-09T23:11:53;9.68;;;4.07;;
49978;SDS011;35869;50.990;6.962;2023-01-09T23:16:56;8.90;;;3.40;;
49978;SDS011;35869;50.990;6.962;2023-01-09T23:21:56;5.20;;;3.22;;
49978;SDS011;35869;50.990;6.962;2023-01-09T23:31:57;8.65;;;3.15;;
49978;SDS011;35869;50.990;6.962;2023-01-09T23:36:58;4.13;;;2.90;;
49978;SDS011;35869;50.990;6.962;2023-01-09T23:41:58;5.57;;;3.33;;
49978;SDS011;35869;50.990;6.962;2023-01-09T23:46:58;6.72;;;2.55;;
49978;SDS011;35869;50.990;6.962;2023-01-09T23:51:58;9.23;;;3.42;;
49978;SDS011;35869;50.990;6.962;2023-01-09T23:56:58;4.53;;;2.65;;
